Avalon, Texas
Current Conditions -  °F | °C
As of 7:55 AM on Wednesday 26 Nov 2014 (Local Time) from KJWY Reporting Station
Clear Clear  
Wind Chill: 40°   Ceiling: Unl
Heat Index: 44°   Visibility: 10mi
Dew Point: 31°   Wind: 6mph
Humidity: 61%   Direction: 230°SW
Pressure: 30.11"   Gusts: NA
Location:  32.21°N, 96.79°W
Report Text: KJWY 261355Z AUTO 23005KT 10SM CLR 07/00 A3011 RMK AO2 T00651005
Loading
Personal Weather Stations






























Interactive Weather Map New forecast layout! Learn more

10-Day Weather Forecast

Advertisements
Track Severe Weather on mobile